Time;durP1;ratioP1;P1;durP2;ratioP2;P2;SDS_P1;SDS_P2;PMS_P1;PMS_P2;Temp;Humidity;BMP_temperature;BMP_pressure;BME280_temperature;BME280_humidity;BME280_pressure;Samples;Min_cycle;Max_cycle;Signal;HPM_P1;HPM_P2
2020/12/02 00:02:02;;;;;;;65.35;28.75;;;;;;;-3.40;74.50;95375.91;5033563;28;20249;-87
2020/12/02 00:04:30;;;;;;;55.60;27.98;;;;;;;-3.45;74.13;95373.47;5032697;27;20203;-87
2020/12/02 00:06:57;;;;;;;55.63;28.02;;;;;;;-3.43;73.80;95375.97;5032056;28;20698;-87
2020/12/02 00:09:24;;;;;;;63.13;28.85;;;;;;;-3.42;74.11;95377.66;5032598;28;20207;-87
2020/12/02 00:11:52;;;;;;;78.32;33.83;;;;;;;-3.46;74.17;95374.34;5033205;28;20542;-87
2020/12/02 00:14:22;;;;;;;63.67;32.55;;;;;;;-3.37;74.66;95380.13;5032379;28;20242;-87
2020/12/02 00:16:51;;;;;;;72.00;32.45;;;;;;;-3.36;74.40;95387.78;5033725;28;20580;-88
2020/12/02 00:19:18;;;;;;;74.10;34.88;;;;;;;-3.34;74.00;95380.91;5032896;28;20207;-88
2020/12/02 00:22:00;;;;;;;58.72;30.38;;;;;;;-3.37;73.91;95377.56;5032418;28;20211;-88
2020/12/02 00:24:28;;;;;;;78.22;33.53;;;;;;;-3.39;74.45;95377.59;5031857;28;20709;-88
2020/12/02 00:26:55;;;;;;;73.53;33.90;;;;;;;-3.38;74.04;95379.28;5032051;28;20227;-87
2020/12/02 00:29:22;;;;;;;61.58;28.65;;;;;;;-3.40;73.78;95378.47;5032630;28;20230;-87
2020/12/02 00:31:51;;;;;;;62.33;27.83;;;;;;;-3.41;73.84;95378.50;5032411;28;20203;-87
2020/12/02 00:34:21;;;;;;;53.33;25.85;;;;;;;-3.39;74.25;95371.63;5032526;27;20239;-88
2020/12/02 00:36:47;;;;;;;46.72;25.63;;;;;;;-3.46;73.94;95364.06;5031931;28;20263;-86
2020/12/02 00:39:14;;;;;;;52.17;24.35;;;;;;;-3.43;73.71;95375.97;5031854;28;20555;-88
2020/12/02 00:41:46;;;;;;;57.15;26.58;;;;;;;-3.47;73.75;95374.34;5031765;28;20252;-88
2020/12/02 00:44:13;;;;;;;52.20;24.30;;;;;;;-3.54;74.17;95365.09;5032458;28;20194;-87
2020/12/02 00:46:40;;;;;;;53.30;25.92;;;;;;;-3.47;74.28;95374.34;5014823;28;20223;-88
2020/12/02 00:49:06;;;;;;;51.33;26.70;;;;;;;-3.46;74.47;95376.06;5013211;28;20215;-88
2020/12/02 00:51:33;;;;;;;48.10;26.65;;;;;;;-3.49;74.41;95373.53;5012546;28;20661;-87
2020/12/02 00:53:59;;;;;;;47.63;23.95;;;;;;;-3.51;74.59;95367.59;5012479;28;20204;-88
2020/12/02 00:56:26;;;;;;;50.25;26.83;;;;;;;-3.51;74.05;95372.72;5012088;28;20250;-88
2020/12/02 00:59:01;;;;;;;57.22;30.45;;;;;;;-3.54;73.78;95373.66;5011549;28;20661;-87
2020/12/02 01:01:38;;;;;;;49.65;28.95;;;;;;;-3.52;74.23;95381.31;5012718;28;20203;-87
2020/12/02 01:04:07;;;;;;;56.17;27.88;;;;;;;-3.50;73.62;95374.41;5012680;28;20219;-88
2020/12/02 01:06:34;;;;;;;57.50;29.98;;;;;;;-3.57;73.52;95365.19;5011858;28;20231;-88
2020/12/02 01:09:01;;;;;;;50.58;27.95;;;;;;;-3.60;73.96;95362.69;5012922;28;20315;-87
2020/12/02 01:11:29;;;;;;;71.13;30.20;;;;;;;-3.63;73.51;95368.72;5014324;28;20202;-90
2020/12/02 01:14:00;;;;;;;50.25;28.48;;;;;;;-3.63;73.52;95361.03;5016713;28;20740;-87
2020/12/02 01:16:30;;;;;;;45.28;24.30;;;;;;;-3.65;73.30;95364.53;5034303;28;20222;-87
2020/12/02 01:18:57;;;;;;;36.50;17.60;;;;;;;-3.67;74.06;95366.28;5031470;28;20204;-88
2020/12/02 01:21:36;;;;;;;33.40;19.25;;;;;;;-3.67;73.70;95358.59;5031593;28;20199;-88
2020/12/02 01:24:07;;;;;;;36.65;18.83;;;;;;;-3.67;73.13;95367.13;5031949;28;20211;-88
2020/12/02 01:26:38;;;;;;;33.15;16.55;;;;;;;-3.60;73.78;95365.25;5031441;28;20250;-90
2020/12/02 01:29:13;;;;;;;35.92;17.30;;;;;;;-3.60;73.58;95368.66;5032670;28;20256;-89
2020/12/02 01:31:41;;;;;;;27.77;15.13;;;;;;;-3.59;73.07;95361.81;5031546;28;20191;-90
2020/12/02 01:34:09;;;;;;;25.83;14.30;;;;;;;-3.57;72.98;95372.88;5016014;28;20712;-89
2020/12/02 01:36:54;;;;;;;25.42;14.32;;;;;;;-3.55;73.74;95368.56;5011473;28;20245;-88
2020/12/02 01:39:22;;;;;;;33.30;16.35;;;;;;;-3.59;73.25;95374.63;5012379;28;20211;-89
2020/12/02 01:41:48;;;;;;;28.75;15.38;;;;;;;-3.66;72.94;95370.53;5013301;28;20673;-87
2020/12/02 01:44:16;;;;;;;56.20;29.55;;;;;;;-3.78;72.81;95359.63;5019978;28;20295;-88
2020/12/02 01:46:58;;;;;;;53.45;25.13;;;;;;;-3.77;73.22;95371.59;5019894;28;20220;-88
2020/12/02 01:49:31;;;;;;;30.40;15.20;;;;;;;-3.88;73.83;95368.41;5022132;28;20422;-88
2020/12/02 01:52:12;;;;;;;44.58;19.17;;;;;;;-3.87;73.70;95366.69;5030470;28;20211;-86
2020/12/02 01:54:46;;;;;;;35.33;19.67;;;;;;;-3.96;72.85;95362.63;5052795;28;20214;-86
2020/12/02 01:57:20;;;;;;;24.85;13.20;;;;;;;-3.98;73.74;95366.09;5053555;28;20225;-87
2020/12/02 01:59:56;;;;;;;25.05;12.93;;;;;;;-4.08;74.27;95365.41;5050882;28;20195;-87
2020/12/02 02:02:33;;;;;;;27.67;13.23;;;;;;;-4.01;74.25;95367.00;5049759;28;20203;-86
2020/12/02 02:05:06;;;;;;;26.73;14.70;;;;;;;-4.00;74.68;95367.84;5044198;28;20226;-87
2020/12/02 02:07:34;;;;;;;26.95;13.88;;;;;;;-4.03;74.69;95352.53;5033148;28;20231;-88
2020/12/02 02:10:14;;;;;;;24.58;14.55;;;;;;;-3.94;74.57;95370.28;5031705;28;20206;-88
2020/12/02 02:13:29;;;;;;;31.02;16.20;;;;;;;-3.90;74.89;95362.47;5031728;28;20264;-87
2020/12/02 02:16:01;;;;;;;27.92;14.73;;;;;;;-3.84;74.82;95359.78;5092265;28;20213;-87
2020/12/02 02:18:30;;;;;;;32.38;14.32;;;;;;;-3.79;74.40;95369.94;5036187;27;20256;-87
2020/12/02 02:21:00;;;;;;;24.58;13.43;;;;;;;-3.78;74.82;95366.50;5031331;28;20206;-88
2020/12/02 02:23:27;;;;;;;19.30;12.82;;;;;;;-3.76;74.49;95373.31;5034488;28;20208;-88
2020/12/02 02:26:24;;;;;;;26.27;15.32;;;;;;;-3.69;74.52;95376.56;5034450;28;20204;-88
2020/12/02 02:28:55;;;;;;;34.30;15.48;;;;;;;-3.68;73.64;95377.41;5035728;27;20276;-88
2020/12/02 02:31:25;;;;;;;30.25;17.20;;;;;;;-3.66;73.30;95378.22;5034114;28;20560;-88
2020/12/02 02:33:53;;;;;;;32.55;16.92;;;;;;;-3.64;73.82;95381.59;5034275;28;20231;-87
2020/12/02 02:36:23;;;;;;;28.80;14.98;;;;;;;-3.62;73.67;95380.69;5034282;28;20219;-88
2020/12/02 02:38:50;;;;;;;34.20;18.85;;;;;;;-3.63;73.28;95389.25;5034848;28;20518;-88
2020/12/02 02:41:18;;;;;;;35.08;16.88;;;;;;;-3.58;73.76;95389.97;5034261;28;20200;-87
2020/12/02 02:43:47;;;;;;;32.22;16.20;;;;;;;-3.55;73.55;95383.94;5034320;28;20204;-87
2020/12/02 02:46:13;;;;;;;34.03;19.25;;;;;;;-3.63;73.51;95383.28;5034457;28;20232;-88
2020/12/02 02:48:40;;;;;;;40.90;18.98;;;;;;;-3.65;72.72;95385.03;5034239;28;20286;-87
2020/12/02 02:51:07;;;;;;;33.65;17.40;;;;;;;-3.65;72.81;95392.72;5034559;28;20256;-87
2020/12/02 02:53:34;;;;;;;32.92;16.65;;;;;;;-3.70;73.30;95392.81;5033671;28;20205;-88
2020/12/02 02:56:00;;;;;;;36.50;18.30;;;;;;;-3.70;72.97;95381.72;5033793;28;20199;-88
2020/12/02 02:58:28;;;;;;;46.75;18.00;;;;;;;-3.68;72.67;95390.22;5033857;28;20282;-88
2020/12/02 03:00:59;;;;;;;39.45;19.67;;;;;;;-3.65;73.21;95392.72;5033724;28;20215;-88
2020/12/02 03:03:29;;;;;;;94.05;30.77;;;;;;;-3.68;72.74;95382.53;5034007;28;20222;-88
2020/12/02 03:05:56;;;;;;;63.08;28.45;;;;;;;-3.67;72.89;95379.09;5018041;28;20575;-88
2020/12/02 03:08:23;;;;;;;48.67;20.80;;;;;;;-3.63;72.90;95385.84;5013688;28;20589;-88
2020/12/02 03:10:50;;;;;;;51.38;21.65;;;;;;;-3.67;73.04;95384.22;5013773;28;20265;-88
2020/12/02 03:13:33;;;;;;;37.13;19.08;;;;;;;-3.68;72.68;95392.78;5014150;28;20279;-88
2020/12/02 03:16:04;;;;;;;44.78;20.70;;;;;;;-3.70;73.71;95392.81;5014455;28;20197;-87
2020/12/02 03:18:31;;;;;;;41.20;18.45;;;;;;;-3.71;74.43;95391.16;5014527;28;20212;-88
2020/12/02 03:21:02;;;;;;;34.13;17.73;;;;;;;-3.71;74.75;95380.03;5014358;28;20212;-88
2020/12/02 03:23:28;;;;;;;39.28;19.27;;;;;;;-3.69;73.77;95383.41;5014210;28;20218;-88
2020/12/02 03:25:55;;;;;;;36.08;17.95;;;;;;;-3.67;73.54;95381.66;5014272;28;20222;-88
2020/12/02 03:28:28;;;;;;;31.67;15.50;;;;;;;-3.66;73.31;95385.91;5013564;28;20232;-88
2020/12/02 03:30:56;;;;;;;32.05;17.55;;;;;;;-3.64;73.84;95387.56;5013322;28;20322;-88
2020/12/02 03:33:24;;;;;;;39.08;17.90;;;;;;;-3.67;73.67;95390.19;5012807;28;20263;-87
2020/12/02 03:35:51;;;;;;;44.15;20.40;;;;;;;-3.69;73.25;95391.94;5013230;28;20204;-88
2020/12/02 03:38:17;;;;;;;36.05;20.45;;;;;;;-3.68;73.41;95390.22;5013600;28;20288;-88
2020/12/02 03:40:44;;;;;;;43.63;18.88;;;;;;;-3.67;72.77;95391.91;5013555;28;20204;-88
2020/12/02 03:43:10;;;;;;;30.73;16.92;;;;;;;-3.70;72.57;95386.84;5012998;28;20200;-88
2020/12/02 03:45:42;;;;;;;36.08;18.67;;;;;;;-3.70;72.98;95387.69;5013505;28;20246;-88
2020/12/02 03:48:10;;;;;;;35.63;18.85;;;;;;;-3.68;73.01;95387.66;5013401;28;20585;-88
2020/12/02 03:50:38;;;;;;;43.22;18.33;;;;;;;-3.73;73.01;95392.06;5013540;28;20563;-88
2020/12/02 03:53:05;;;;;;;38.75;16.83;;;;;;;-3.74;72.96;95386.09;5012836;28;20200;-88
2020/12/02 03:55:32;;;;;;;33.03;17.92;;;;;;;-3.73;73.39;95392.06;5013203;28;20561;-88
2020/12/02 03:57:58;;;;;;;45.22;18.83;;;;;;;-3.75;72.85;95385.25;5013058;28;20278;-88
2020/12/02 04:00:25;;;;;;;30.85;16.75;;;;;;;-3.71;72.75;95387.72;5013206;28;20224;-88
2020/12/02 04:02:51;;;;;;;35.05;17.80;;;;;;;-3.68;72.29;95390.22;5012703;28;20669;-88
2020/12/02 04:05:18;;;;;;;22.80;15.32;;;;;;;-3.71;73.00;95388.56;5012891;28;20311;-88
2020/12/02 04:07:45;;;;;;;32.10;17.35;;;;;;;-3.75;72.90;95385.25;5012946;28;20619;-88
2020/12/02 04:10:12;;;;;;;32.80;14.88;;;;;;;-3.78;73.35;95381.88;5013106;28;20295;-88
2020/12/02 04:12:39;;;;;;;31.55;15.75;;;;;;;-3.74;73.47;95378.38;5012707;28;20224;-87
2020/12/02 04:15:05;;;;;;;36.92;17.02;;;;;;;-3.75;72.74;95382.69;5012776;28;20212;-88
2020/12/02 04:17:32;;;;;;;34.30;16.65;;;;;;;-3.75;72.74;95380.13;5013164;28;20207;-88
2020/12/02 04:19:59;;;;;;;32.67;16.52;;;;;;;-3.77;73.20;95376.72;5013031;28;20208;-88
2020/12/02 04:22:26;;;;;;;33.03;16.13;;;;;;;-3.78;72.52;95380.16;5012786;28;20219;-88
2020/12/02 04:24:53;;;;;;;29.70;14.65;;;;;;;-3.82;72.19;95372.56;5012787;28;20291;-88
2020/12/02 04:27:20;;;;;;;19.63;12.95;;;;;;;-3.81;72.00;95382.78;5013254;28;20316;-88
2020/12/02 04:29:46;;;;;;;35.63;15.90;;;;;;;-3.89;72.39;95376.97;5013399;28;20613;-88
2020/12/02 04:32:13;;;;;;;31.58;15.02;;;;;;;-3.89;72.66;95378.72;5012522;28;20295;-88
2020/12/02 04:34:39;;;;;;;25.27;13.73;;;;;;;-3.89;72.89;95371.84;5012846;28;20211;-88
2020/12/02 04:37:06;;;;;;;25.27;15.75;;;;;;;-3.83;72.38;95370.88;5013302;28;20212;-87
2020/12/02 04:39:32;;;;;;;27.33;14.50;;;;;;;-3.83;72.36;95376.00;5012212;28;20290;-88
2020/12/02 04:42:00;;;;;;;26.35;15.07;;;;;;;-3.88;72.83;95378.66;5015488;28;20238;-89
2020/12/02 04:44:26;;;;;;;33.75;16.65;;;;;;;-3.84;73.03;95390.53;5029917;28;20207;-89
2020/12/02 04:46:55;;;;;;;28.50;16.80;;;;;;;-3.85;72.90;95385.44;5032173;28;20318;-88
2020/12/02 04:49:24;;;;;;;38.53;21.05;;;;;;;-3.87;72.51;95377.78;5032974;28;20199;-88
2020/12/02 04:51:54;;;;;;;43.10;19.20;;;;;;;-3.86;73.02;95376.91;5031804;28;20249;-88
2020/12/02 04:54:21;;;;;;;38.25;19.90;;;;;;;-3.88;72.50;95391.50;5031872;28;20238;-88
2020/12/02 04:56:48;;;;;;;49.25;23.40;;;;;;;-3.91;72.65;95393.28;5032093;28;20294;-88
2020/12/02 04:59:17;;;;;;;39.97;21.58;;;;;;;-3.90;73.06;95387.28;5031776;28;20211;-88
2020/12/02 05:01:51;;;;;;;67.25;28.63;;;;;;;-4.01;72.83;95379.81;5032329;28;20200;-88
2020/12/02 05:04:21;;;;;;;48.38;23.75;;;;;;;-3.98;73.52;95394.28;5032036;28;20218;-88
2020/12/02 05:06:51;;;;;;;50.20;25.00;;;;;;;-4.03;73.41;95401.22;5031782;28;20280;-88
2020/12/02 05:09:20;;;;;;;30.23;17.35;;;;;;;-4.15;72.72;95398.03;5031819;28;20204;-87
2020/12/02 05:12:00;;;;;;;45.08;21.52;;;;;;;-4.24;72.24;95400.78;5031769;28;20196;-88
2020/12/02 05:14:35;;;;;;;57.15;23.42;;;;;;;-4.25;72.50;95391.41;5032067;28;20207;-88
2020/12/02 05:17:18;;;;;;;43.33;25.20;;;;;;;-4.24;73.25;95393.09;5031868;28;20286;-87
2020/12/02 05:19:45;;;;;;;63.45;29.52;;;;;;;-4.20;73.62;95391.31;5031675;28;20202;-88
2020/12/02 05:22:14;;;;;;;65.97;28.60;;;;;;;-4.17;73.15;95398.94;5025884;28;20199;-87
2020/12/02 05:24:47;;;;;;;75.88;31.88;;;;;;;-4.13;73.16;95395.44;5030321;28;20662;-87
2020/12/02 05:27:18;;;;;;;83.13;34.30;;;;;;;-4.11;72.83;95403.91;5031510;28;20247;-89
2020/12/02 05:29:56;;;;;;;49.15;26.58;;;;;;;-4.07;73.28;95400.41;5031901;28;20222;-88
2020/12/02 05:32:24;;;;;;;75.65;30.83;;;;;;;-4.10;72.39;95403.03;5031636;28;20242;-89
2020/12/02 05:34:52;;;;;;;72.05;32.97;;;;;;;-4.06;72.32;95412.34;5031652;28;20283;-89
2020/12/02 05:37:29;;;;;;;111.95;47.35;;;;;;;-4.09;73.01;95414.97;5031435;28;20199;-88
2020/12/02 05:39:59;;;;;;;97.03;44.00;;;;;;;-4.20;73.23;95416.91;5031393;27;20552;-87
2020/12/02 05:42:34;;;;;;;87.43;43.40;;;;;;;-4.21;73.62;95415.25;5033442;28;20209;-87
2020/12/02 05:45:12;;;;;;;71.95;36.55;;;;;;;-4.22;73.82;95429.75;5030447;28;20676;-88
2020/12/02 05:47:41;;;;;;;70.85;34.88;;;;;;;-4.16;74.02;95432.19;5031452;28;20298;-88
2020/12/02 05:50:13;;;;;;;81.63;35.42;;;;;;;-4.13;73.49;95438.97;5031367;28;20200;-89
2020/12/02 05:52:41;;;;;;;77.15;35.58;;;;;;;-4.15;73.45;95435.59;5031713;28;20215;-89
2020/12/02 05:55:14;;;;;;;73.28;34.50;;;;;;;-4.12;73.57;95443.22;5031477;27;20217;-89
2020/12/02 05:57:51;;;;;;;77.75;35.25;;;;;;;-4.07;73.25;95444.81;5035069;28;20646;-89
2020/12/02 06:00:19;;;;;;;67.28;31.33;;;;;;;-4.04;73.25;95449.06;5035517;28;20213;-89
2020/12/02 06:02:46;;;;;;;66.70;33.72;;;;;;;-4.01;72.37;95451.56;5035141;28;20219;-90
2020/12/02 06:05:12;;;;;;;68.82;32.75;;;;;;;-3.96;72.63;95452.31;5035835;28;20203;-95
2020/12/02 06:07:50;;;;;;;75.90;34.88;;;;;;;-3.94;72.91;95455.69;5039881;27;20718;-88
2020/12/02 06:10:21;;;;;;;66.10;35.80;;;;;;;-3.90;72.62;95459.88;5035804;28;20635;-88
2020/12/02 06:12:47;;;;;;;142.88;53.90;;;;;;;-3.85;72.02;95457.22;5035132;28;20540;-88
2020/12/02 06:15:23;;;;;;;88.82;40.90;;;;;;;-3.82;71.82;95459.72;5034728;28;20223;-92
2020/12/02 06:18:11;;;;;;;90.05;40.67;;;;;;;-3.77;72.30;95463.88;5035186;28;20203;-87
2020/12/02 06:20:44;;;;;;;125.63;52.85;;;;;;;-3.77;72.24;95458.75;5036718;27;20207;-92
2020/12/02 06:23:10;;;;;;;111.75;51.83;;;;;;;-3.64;72.17;95467.06;5034488;28;20758;-93
2020/12/02 06:25:49;;;;;;;104.68;51.53;;;;;;;-3.52;73.04;95478.75;5027583;28;20257;-93
2020/12/02 06:28:44;;;;;;;119.43;57.63;;;;;;;-3.48;72.91;95473.53;5024652;27;20233;-93
2020/12/02 06:31:19;;;;;;;128.57;55.72;;;;;;;-3.36;72.81;95480.16;5022444;28;20638;-92
2020/12/02 06:33:48;;;;;;;130.25;54.88;;;;;;;-3.34;72.80;95475.81;5026267;28;20243;-92
2020/12/02 06:36:20;;;;;;;125.30;54.55;;;;;;;-3.26;73.82;95481.63;5032807;28;20310;-93
2020/12/02 06:38:49;;;;;;;120.57;55.78;;;;;;;-3.33;74.93;95474.94;5033980;28;20211;-93
2020/12/02 06:41:34;;;;;;;109.38;54.25;;;;;;;-3.20;75.45;95475.50;5034749;28;20207;-92
2020/12/02 06:44:32;;;;;;;119.50;54.83;;;;;;;-2.96;75.75;95497.22;5014873;28;20270;-92
2020/12/02 06:47:13;;;;;;;128.95;63.58;;;;;;;-2.83;74.76;95496.06;5001062;28;20203;-92
2020/12/02 06:49:39;;;;;;;152.65;71.15;;;;;;;-2.74;74.77;95498.41;5035598;28;20632;-92
2020/12/02 06:52:09;;;;;;;144.35;64.72;;;;;;;-2.77;74.62;95489.94;5035007;28;20637;-92
2020/12/02 06:54:40;;;;;;;133.70;59.90;;;;;;;-2.72;75.71;95482.97;5034296;28;20298;-93
2020/12/02 06:57:18;;;;;;;116.85;56.67;;;;;;;-2.56;76.54;95499.72;5068623;27;20577;-92
2020/12/02 06:59:54;;;;;;;117.35;56.33;;;;;;;-2.57;76.64;95467.19;5034473;27;20210;-93
2020/12/02 07:02:39;;;;;;;120.00;59.22;;;;;;;-2.37;76.85;95489.81;5034516;28;20230;-93
2020/12/02 07:05:07;;;;;;;137.85;62.90;;;;;;;-2.22;77.41;95481.72;5034635;28;20622;-93
2020/12/02 07:07:33;;;;;;;137.75;63.83;;;;;;;-2.10;76.43;95481.38;5033897;28;20723;-92
2020/12/02 07:10:00;;;;;;;138.05;65.35;;;;;;;-1.99;76.84;95481.97;5034319;27;20290;-92
2020/12/02 07:12:30;;;;;;;145.40;62.58;;;;;;;-1.90;76.94;95474.00;5033708;28;20235;-92
2020/12/02 07:15:02;;;;;;;123.18;56.85;;;;;;;-1.74;76.28;95481.28;5034294;28;20204;-92
2020/12/02 07:17:29;;;;;;;85.32;47.53;;;;;;;-1.74;76.90;95476.13;5037478;27;20200;-93
2020/12/02 07:20:05;;;;;;;89.13;42.47;;;;;;;-1.79;76.99;95476.25;5037083;28;20236;-88
2020/12/02 07:22:38;;;;;;;89.93;48.65;;;;;;;-1.83;77.57;95477.22;5043950;28;20558;-90
2020/12/02 07:25:08;;;;;;;119.03;58.53;;;;;;;-2.04;78.20;95473.50;5042909;28;20223;-88
2020/12/02 07:27:42;;;;;;;88.95;46.33;;;;;;;-2.00;83.43;95479.44;5034378;28;20306;-87
2020/12/02 07:30:19;;;;;;;124.75;57.45;;;;;;;-2.10;84.18;95483.13;5032883;28;20207;-86
2020/12/02 07:32:47;;;;;;;89.38;42.72;;;;;;;-2.30;81.47;95481.91;5032513;27;20284;-93
2020/12/02 07:35:17;;;;;;;84.82;42.28;;;;;;;-2.25;81.69;95469.78;5015310;28;20229;-86
2020/12/02 07:37:45;;;;;;;53.63;31.98;;;;;;;-2.35;81.76;95485.47;5031145;28;20200;-87
2020/12/02 07:40:33;;;;;;;42.22;22.30;;;;;;;-2.46;82.86;95479.75;5032369;28;20207;-88
2020/12/02 07:43:06;;;;;;;43.35;21.67;;;;;;;-2.56;83.02;95474.03;5025519;28;20200;-92
2020/12/02 07:45:35;;;;;;;47.63;27.50;;;;;;;-2.48;83.47;95478.97;5010896;28;20504;-86
2020/12/02 07:48:09;;;;;;;47.45;26.17;;;;;;;-2.44;83.72;95480.56;5016554;28;20636;-86
2020/12/02 07:50:43;;;;;;;34.50;18.98;;;;;;;-2.22;84.92;95481.72;5014431;28;20291;-86
2020/12/02 07:53:17;;;;;;;41.63;23.65;;;;;;;-2.12;82.59;95485.72;5011236;28;20238;-86
2020/12/02 07:55:47;;;;;;;45.53;24.35;;;;;;;-2.07;82.26;95489.00;5011291;28;20200;-86
2020/12/02 07:58:17;;;;;;;60.97;31.65;;;;;;;-2.10;82.13;95489.09;5023975;28;20235;-86
2020/12/02 08:00:46;;;;;;;53.78;31.70;;;;;;;-1.96;82.35;95488.75;5012200;28;20208;-85
2020/12/02 08:03:30;;;;;;;60.60;34.15;;;;;;;-1.82;81.75;95488.38;5022344;27;20272;-91
2020/12/02 08:06:05;;;;;;;53.80;32.55;;;;;;;-1.71;81.92;95484.63;5032475;28;20676;-93
2020/12/02 08:08:31;;;;;;;59.85;30.92;;;;;;;-1.74;80.94;95476.97;5032979;28;20779;-92
2020/12/02 08:11:31;;;;;;;47.58;31.20;;;;;;;-1.60;81.20;95479.19;5032592;28;20204;-91
2020/12/02 08:14:00;;;;;;;61.28;31.95;;;;;;;-1.49;81.55;95466.00;5032157;28;20543;-93
2020/12/02 08:16:38;;;;;;;62.20;31.10;;;;;;;-1.39;81.43;95468.28;5032816;28;20221;-93
2020/12/02 08:19:09;;;;;;;61.15;31.73;;;;;;;-1.21;80.51;95481.47;5032957;28;20275;-92
2020/12/02 08:21:39;;;;;;;50.17;28.98;;;;;;;-1.13;79.75;95476.97;5033028;28;20682;-93
2020/12/02 08:24:20;;;;;;;59.50;30.02;;;;;;;-1.05;79.38;95480.97;5032875;27;20246;-91
2020/12/02 08:26:51;;;;;;;63.95;33.97;;;;;;;-1.14;79.65;95468.41;5059658;27;20615;-91
2020/12/02 08:29:24;;;;;;;76.00;38.92;;;;;;;-1.07;80.15;95480.19;5032219;28;20310;-92
2020/12/02 08:32:00;;;;;;;74.15;40.58;;;;;;;-0.88;79.88;95490.75;5032857;28;20274;-91
2020/12/02 08:34:29;;;;;;;81.00;40.55;;;;;;;-1.02;79.75;95477.47;5032524;28;20252;-89
2020/12/02 08:37:23;;;;;;;79.82;41.33;;;;;;;-0.88;80.50;95490.75;5032496;28;20218;-91
2020/12/02 08:39:51;;;;;;;79.20;41.58;;;;;;;-0.77;80.46;95483.56;5033233;28;20211;-91
2020/12/02 08:42:27;;;;;;;81.35;41.47;;;;;;;-0.64;79.85;95473.69;5032253;28;20552;-92
2020/12/02 08:45:07;;;;;;;86.38;43.85;;;;;;;-0.59;79.76;95473.53;5012662;28;20199;-91
2020/12/02 08:47:33;;;;;;;90.60;41.10;;;;;;;-0.47;80.28;95470.59;5012719;28;20231;-91
2020/12/02 08:50:00;;;;;;;76.07;40.25;;;;;;;-0.38;79.34;95465.97;5013120;28;20200;-91
2020/12/02 08:52:26;;;;;;;89.03;39.92;;;;;;;-0.24;79.06;95473.25;5012595;28;20253;-94
2020/12/02 08:54:53;;;;;;;88.65;44.50;;;;;;;-0.15;79.09;95461.78;5012339;28;20257;-92
2020/12/02 08:57:21;;;;;;;66.32;40.00;;;;;;;-0.03;78.58;95474.22;5015764;27;20215;-92
2020/12/02 08:59:49;;;;;;;84.72;47.88;;;;;;;0.02;78.52;95458.63;5011733;28;20257;-93
2020/12/02 09:02:18;;;;;;;80.28;43.45;;;;;;;0.23;78.10;95473.34;5012904;28;20236;-90
2020/12/02 09:04:46;;;;;;;94.60;45.08;;;;;;;0.31;77.46;95466.19;5012745;28;20283;-92
2020/12/02 09:07:13;;;;;;;86.05;46.67;;;;;;;0.36;77.88;95459.13;5012673;28;20216;-90
2020/12/02 09:09:40;;;;;;;82.88;47.03;;;;;;;0.39;78.03;95451.25;5014045;28;20315;-94
2020/12/02 09:12:07;;;;;;;98.47;46.35;;;;;;;0.44;77.38;95449.34;5013827;28;20261;-94
2020/12/02 09:14:35;;;;;;;91.10;48.63;;;;;;;0.54;77.57;95455.84;5028928;28;20223;-93
2020/12/02 09:17:03;;;;;;;97.72;52.78;;;;;;;0.63;76.99;95452.09;5032990;28;20560;-91
2020/12/02 09:19:30;;;;;;;102.50;50.58;;;;;;;0.75;77.40;95448.22;5032522;28;20220;-90
2020/12/02 09:21:57;;;;;;;92.57;49.60;;;;;;;0.84;77.34;95451.28;5032066;28;20286;-92
2020/12/02 09:24:23;;;;;;;86.05;49.97;;;;;;;0.97;77.23;95438.75;5032209;28;20205;-91
2020/12/02 09:26:50;;;;;;;93.25;48.92;;;;;;;1.02;77.14;95439.41;5032090;28;20209;-90
2020/12/02 09:29:19;;;;;;;85.40;46.78;;;;;;;1.00;76.79;95432.63;5032358;27;20233;-91
2020/12/02 09:31:46;;;;;;;75.95;41.58;;;;;;;1.03;77.19;95428.16;5032024;28;20290;-91
2020/12/02 09:34:14;;;;;;;73.63;38.50;;;;;;;1.13;77.44;95416.56;5033146;27;20235;-90
2020/12/02 09:36:40;;;;;;;78.80;43.58;;;;;;;1.13;77.26;95419.13;5033374;27;20583;-89
2020/12/02 09:39:08;;;;;;;77.95;42.22;;;;;;;1.04;77.56;95416.94;5031601;28;20642;-91
2020/12/02 09:41:42;;;;;;;84.75;44.22;;;;;;;1.29;77.29;95427.13;5032509;28;20203;-86
2020/12/02 09:44:31;;;;;;;92.47;49.80;;;;;;;1.23;76.96;95417.88;5033731;28;20576;-89
2020/12/02 09:47:03;;;;;;;91.90;49.33;;;;;;;1.18;77.86;95409.47;5032220;28;20297;-87
2020/12/02 09:49:32;;;;;;;108.45;46.92;;;;;;;1.33;77.59;95413.19;5032236;28;20203;-89
2020/12/02 09:52:17;;;;;;;90.53;49.03;;;;;;;1.14;78.27;95401.88;5031537;28;20230;-87
2020/12/02 09:54:54;;;;;;;72.07;44.13;;;;;;;1.31;78.63;95399.47;5030725;28;20252;-88
2020/12/02 09:57:25;;;;;;;78.28;47.22;;;;;;;1.18;79.13;95413.81;5030294;28;20207;-88
2020/12/02 09:59:53;;;;;;;86.53;46.13;;;;;;;1.27;80.03;95386.75;5031494;28;20559;-88
2020/12/02 10:02:47;;;;;;;82.85;44.65;;;;;;;1.39;80.08;95386.22;5030642;28;20227;-87
2020/12/02 10:05:50;;;;;;;58.70;36.38;;;;;;;1.33;80.14;95394.25;5030905;28;20286;-86
2020/12/02 10:08:28;;;;;;;59.33;31.83;;;;;;;1.29;80.95;95387.53;5029120;28;20227;-87
2020/12/02 10:11:02;;;;;;;58.55;32.35;;;;;;;1.44;81.03;95374.78;5030536;28;20256;-88
2020/12/02 10:14:04;;;;;;;65.80;31.02;;;;;;;1.27;80.62;95379.00;5032792;28;20267;-88
2020/12/02 10:16:37;;;;;;;66.95;31.80;;;;;;;1.40;80.99;95372.41;5030690;28;20205;-88
2020/12/02 10:19:20;;;;;;;62.85;30.90;;;;;;;1.58;80.30;95368.22;5030190;28;20667;-88
2020/12/02 10:22:20;;;;;;;61.95;30.88;;;;;;;1.52;79.77;95367.56;5031006;28;20202;-87
2020/12/02 10:25:04;;;;;;;63.10;32.55;;;;;;;1.47;80.44;95361.75;5030332;28;20193;-87
2020/12/02 10:27:52;;;;;;;59.22;31.27;;;;;;;1.48;80.81;95360.00;5030708;28;20203;-90
2020/12/02 10:30:23;;;;;;;77.50;34.58;;;;;;;1.09;81.91;95337.47;5031439;28;20250;-88
2020/12/02 10:33:06;;;;;;;64.70;36.40;;;;;;;1.41;81.85;95354.25;5030884;28;20232;-88
2020/12/02 10:35:37;;;;;;;66.45;38.85;;;;;;;1.52;82.47;95349.47;5029743;28;20449;-93
2020/12/02 10:38:12;;;;;;;72.80;36.45;;;;;;;1.61;81.38;95344.81;5031935;28;20200;-92
2020/12/02 10:40:42;;;;;;;73.50;36.08;;;;;;;1.67;81.34;95342.78;5033364;28;20223;-93
2020/12/02 10:43:19;;;;;;;78.05;42.20;;;;;;;1.88;81.41;95341.03;5035298;28;20853;-95
2020/12/02 10:45:51;;;;;;;78.90;40.67;;;;;;;1.77;80.83;95335.50;5038079;28;20203;-95
2020/12/02 10:48:50;;;;;;;83.15;43.70;;;;;;;1.88;80.88;95337.59;5034346;28;20456;-93
2020/12/02 10:51:24;;;;;;;88.50;43.83;;;;;;;1.89;80.53;95334.13;5034037;28;20228;-92
2020/12/02 10:53:59;;;;;;;88.23;41.37;;;;;;;2.02;80.63;95325.72;5033857;28;20461;-91
2020/12/02 10:56:26;;;;;;;82.57;42.93;;;;;;;2.12;80.13;95336.53;5033803;28;20513;-87
2020/12/02 10:58:55;;;;;;;73.10;39.60;;;;;;;2.18;78.88;95331.91;5032035;28;20476;-87
2020/12/02 11:01:23;;;;;;;88.17;44.30;;;;;;;2.21;78.86;95325.75;5032948;28;20466;-85
2020/12/02 11:03:50;;;;;;;98.63;45.23;;;;;;;2.27;79.01;95322.88;5033130;28;20474;-93
2020/12/02 11:06:38;;;;;;;81.07;47.72;;;;;;;2.32;80.10;95328.72;5033637;28;20458;-90
2020/12/02 11:09:20;;;;;;;94.63;46.53;;;;;;;2.09;80.12;95318.56;5035636;28;20227;-96
2020/12/02 11:12:16;;;;;;;99.18;48.97;;;;;;;2.24;80.25;95306.66;5037656;28;20212;-96
2020/12/02 11:15:00;;;;;;;90.50;49.97;;;;;;;2.03;81.17;95311.91;5033438;28;20286;-96
2020/12/02 11:17:40;;;;;;;75.13;41.37;;;;;;;2.08;79.96;95314.28;5037492;28;20476;-96
2020/12/02 11:20:10;;;;;;;85.07;44.90;;;;;;;2.02;79.99;95309.34;5035487;28;20868;-96
2020/12/02 11:23:01;;;;;;;72.80;39.17;;;;;;;2.14;79.26;95303.66;5034683;28;20308;-94
2020/12/02 11:25:36;;;;;;;79.90;40.25;;;;;;;2.07;79.21;95322.97;5034008;28;20457;-91
2020/12/02 11:28:02;;;;;;;87.68;45.95;;;;;;;2.17;79.67;95308.69;5033918;28;20231;-91
2020/12/02 11:30:32;;;;;;;85.83;47.23;;;;;;;2.11;80.31;95303.78;5034207;28;20222;-93
2020/12/02 11:33:28;;;;;;;88.40;45.97;;;;;;;1.98;81.07;95307.81;5034400;28;20474;-90
2020/12/02 11:36:26;;;;;;;74.93;39.65;;;;;;;1.89;80.26;95311.66;5029902;27;20437;-87
2020/12/02 11:39:03;;;;;;;97.00;47.53;;;;;;;2.05;81.02;95304.06;5035479;28;20237;-92
2020/12/02 11:41:39;;;;;;;47.20;28.30;;;;;;;2.08;78.86;95301.34;5034915;28;20214;-91
2020/12/02 11:44:15;;;;;;;73.30;38.40;;;;;;;2.10;80.41;95296.94;5034498;28;20211;-92